This is the latest recevied weather packets stored in our database for station/object KY4EF. If no packets are shown the sender has not sent any weather packets the latest 10 day(s).
| Time | Temp. | Humidity | Pressure | Rain* | Wind** | Luminosity | Snow |
|---|---|---|---|---|---|---|---|
| 1777560885 | 17.22° C | 66% | 1011.8 hPa | 0 mm | - | 541 W/m² | - |
| 1777560584 | 17.78° C | 65% | 1011.7 hPa | 0 mm | - | 534 W/m² | - |
| 1777560281 | 17.22° C | 67% | 1011.6 hPa | 0 mm | - | 521 W/m² | - |
| 1777559979 | 18.33° C | 63% | 1011.6 hPa | 0 mm | - | 509 W/m² | - |
| 1777559679 | 17.78° C | 65% | 1011.6 hPa | 0 mm | - | 496 W/m² | - |
| 1777559377 | 17.78° C | 66% | 1011.4 hPa | 0 mm | - | 486 W/m² | - |
| 1777559073 | 18.33° C | 66% | 1011.7 hPa | 0 mm | - | 472 W/m² | - |
| 1777558767 | 16.67° C | 68% | 1011.4 hPa | 0 mm | - | 459 W/m² | - |
| 1777558464 | 16.67° C | 71% | 1011.6 hPa | 0 mm | - | 444 W/m² | - |
| 1777558160 | 16.11° C | 71% | 1011.5 hPa | 0 mm | - | 432 W/m² | - |
| 1777557856 | 16.67° C | 70% | 1011.5 hPa | 0 mm | - | 419 W/m² | - |
| 1777557555 | 16.67° C | 70% | 1011.6 hPa | 0 mm | - | 403 W/m² | - |
| 1777557250 | 15.56° C | 73% | 1011.6 hPa | 0 mm | - | 390 W/m² | - |
| 1777556946 | 15.56° C | 71% | 1011.4 hPa | 0 mm | - | 373 W/m² | - |
| 1777556641 | 15° C | 75% | 1011.3 hPa | 0 mm | - | 357 W/m² | - |
| 1777556336 | 15° C | 75% | 1011.4 hPa | 0 mm | - | 342 W/m² | - |
| 1777556033 | 15° C | 76% | 1011.5 hPa | 0 mm | - | 330 W/m² | - |
| 1777555728 | 15° C | 77% | 1011.4 hPa | 0 mm | - | 313 W/m² | - |
| 1777555424 | 15° C | 75% | 1011.3 hPa | 0 mm | - | 303 W/m² | - |
| 1777555120 | 13.89° C | 79% | 1011.3 hPa | 0 mm | - | 283 W/m² | - |
| 1777554819 | 13.89° C | 80% | 1011.3 hPa | 0 mm | - | 74 W/m² | - |
| 1777554515 | 13.89° C | 81% | 1011.2 hPa | 0 mm | - | 216 W/m² | - |
| 1777554212 | 13.33° C | 82% | 1011.3 hPa | 0 mm | - | 283 W/m² | - |
| 1777553908 | 12.78° C | 83% | 1011.3 hPa | 0 mm | - | 199 W/m² | - |
| 1777553605 | 12.78° C | 85% | 1011.4 hPa | 0 mm | - | 228 W/m² | - |
* Rain latest hour (hover to see other rain measurements)
** Current wind speed in m/s (hover to see current wind gust speed)